< < Back
Terminal Aerodrome Forecast


Current Version              Previous Versions:   1  2  3  4  5  6  7  8  9  

Terminal Aerodrome Forecast

419
FTUS44 KMRX 030711 AAA
TAFCHA
TAF AMD
KCHA 030711Z 0307/0406 01006KT P6SM OVC025
     FM030900 VRB03KT P6SM VCSH OVC015
     FM031400 15004KT 5SM -RA BR SCT007 OVC015
     FM040100 19005KT 3SM -RA BR SCT005 OVC010 WS020/22040KT=

Latest METAR

366
SAUS80 KWBC 030700 RRA
MTRCHA
METAR KCHA 030653Z 36004KT 10SM OVC025 08/03 A3024 RMK AO2 SLP239
T00780033


USA.gov is the U.S. government's official web portal to all federal, state and local government web resources and services.